Terminal Aerodrome Forecast
Issued by NWS Goodland, KS

Home | Current Version | Previous Version | Graphics & Text | Print | Product List | Glossary On
Versions: 1 2 3 4 5 6 7 8 9 10 11 12 13
000
FTUS43 KGLD 192327
TAFGLD
TAF
KGLD 192327Z 2000/2024 VRB05KT P6SM FEW150 BKN250
     FM201200 27006KT P6SM FEW140 FEW250
     FM201900 11008KT P6SM FEW120 SCT250=

USA.gov is the U.S. government's official web portal to all federal, state and local government web resources and services.